Time;durP1;ratioP1;P1;durP2;ratioP2;P2;SDS_P1;SDS_P2;PMS_P1;PMS_P2;Temp;Humidity;BMP_temperature;BMP_pressure;BME280_temperature;BME280_humidity;BME280_pressure;Samples;Min_cycle;Max_cycle;Signal;HPM_P1;HPM_P2
2023/04/16 00:02:15;;;;;;;69.40;27.80;;;;;;;;;;6182263;23;20022;-83
2023/04/16 00:05:00;;;;;;;67.47;26.77;;;;;;;;;;6182097;23;20121;-82
2023/04/16 00:07:44;;;;;;;71.75;28.58;;;;;;;;;;6182857;23;20024;-83
2023/04/16 00:10:29;;;;;;;63.00;26.88;;;;;;;;;;6182198;23;20455;-82
2023/04/16 00:13:14;;;;;;;65.22;26.25;;;;;;;;;;6161332;23;20036;-81
2023/04/16 00:15:59;;;;;;;69.63;26.70;;;;;;;;;;6182341;23;20028;-82
2023/04/16 00:18:44;;;;;;;70.82;27.67;;;;;;;;;;6182378;23;20071;-83
2023/04/16 00:21:29;;;;;;;63.00;27.02;;;;;;;;;;6181978;23;20056;-83
2023/04/16 00:24:14;;;;;;;71.38;28.35;;;;;;;;;;6182032;23;20351;-82
2023/04/16 00:27:00;;;;;;;68.07;26.98;;;;;;;;;;6183195;23;20024;-83
2023/04/16 00:29:45;;;;;;;73.53;27.65;;;;;;;;;;6182538;23;20360;-83
2023/04/16 00:32:30;;;;;;;72.68;30.70;;;;;;;;;;6181973;23;20048;-83
2023/04/16 00:35:15;;;;;;;86.18;29.05;;;;;;;;;;6184243;23;20023;-82
2023/04/16 00:37:59;;;;;;;83.72;28.65;;;;;;;;;;6183796;23;20020;-83
2023/04/16 00:40:43;;;;;;;74.35;27.95;;;;;;;;;;6183511;23;20054;-83
2023/04/16 00:43:29;;;;;;;66.30;28.00;;;;;;;;;;6183838;23;20519;-84
2023/04/16 00:46:15;;;;;;;95.53;33.67;;;;;;;;;;6163493;23;20103;-83
2023/04/16 00:49:00;;;;;;;80.53;31.92;;;;;;;;;;6183916;23;20015;-82
2023/04/16 00:51:45;;;;;;;89.95;29.98;;;;;;;;;;6183107;23;20132;-82
2023/04/16 00:54:31;;;;;;;84.35;30.08;;;;;;;;;;6185208;23;20103;-82
2023/04/16 00:57:16;;;;;;;76.57;29.65;;;;;;;;;;6183913;23;20040;-82
2023/04/16 01:00:00;;;;;;;79.18;32.47;;;;;;;;;;6183337;23;20028;-82
2023/04/16 01:02:45;;;;;;;76.40;28.40;;;;;;;;;;6184363;23;20481;-82
2023/04/16 01:05:30;;;;;;;82.68;30.60;;;;;;;;;;6183803;23;20071;-82
2023/04/16 01:08:16;;;;;;;81.28;30.15;;;;;;;;;;6183874;23;20081;-82
2023/04/16 01:11:02;;;;;;;80.50;31.73;;;;;;;;;;6184389;23;20011;-82
2023/04/16 01:13:46;;;;;;;95.95;30.23;;;;;;;;;;6184312;23;20024;-82
2023/04/16 01:16:31;;;;;;;76.40;29.20;;;;;;;;;;6185093;23;20015;-82
2023/04/16 01:19:16;;;;;;;79.95;29.17;;;;;;;;;;6184929;23;20323;-82
2023/04/16 01:22:01;;;;;;;83.57;28.77;;;;;;;;;;6184382;23;20016;-82
2023/04/16 01:24:45;;;;;;;79.25;28.33;;;;;;;;;;6184243;23;20023;-83
2023/04/16 01:27:31;;;;;;;86.95;29.08;;;;;;;;;;6184810;23;20071;-82
2023/04/16 01:30:15;;;;;;;77.90;29.42;;;;;;;;;;6183661;23;20506;-82
2023/04/16 01:33:00;;;;;;;76.53;30.25;;;;;;;;;;6182917;23;20075;-81
2023/04/16 01:35:45;;;;;;;92.47;30.77;;;;;;;;;;6184193;23;20344;-82
2023/04/16 01:38:30;;;;;;;79.57;29.58;;;;;;;;;;6184899;23;20020;-82
2023/04/16 01:41:15;;;;;;;94.07;32.42;;;;;;;;;;6184699;23;20019;-81
2023/04/16 01:44:00;;;;;;;77.78;29.25;;;;;;;;;;6182729;23;20024;-81
2023/04/16 01:46:45;;;;;;;77.85;29.27;;;;;;;;;;6183731;23;20095;-82
2023/04/16 01:49:29;;;;;;;67.93;28.25;;;;;;;;;;6183536;23;20455;-82
2023/04/16 01:52:14;;;;;;;69.30;28.77;;;;;;;;;;6184735;23;20024;-82
2023/04/16 01:54:58;;;;;;;71.65;29.35;;;;;;;;;;6183932;23;20057;-82
2023/04/16 01:57:43;;;;;;;64.53;27.60;;;;;;;;;;6183274;23;20455;-86
2023/04/16 02:00:27;;;;;;;60.38;28.40;;;;;;;;;;6183227;23;20020;-82
2023/04/16 02:03:12;;;;;;;77.68;31.15;;;;;;;;;;6184524;23;20072;-83
2023/04/16 02:05:56;;;;;;;81.97;32.47;;;;;;;;;;6182650;23;20392;-81
2023/04/16 02:08:42;;;;;;;67.22;28.60;;;;;;;;;;6183111;23;20056;-81
2023/04/16 02:11:26;;;;;;;76.80;28.67;;;;;;;;;;6184424;23;20043;-82
2023/04/16 02:14:11;;;;;;;78.60;30.50;;;;;;;;;;6184453;23;20019;-82
2023/04/16 02:16:55;;;;;;;74.50;28.60;;;;;;;;;;6183694;23;20020;-81
2023/04/16 02:19:40;;;;;;;87.53;30.70;;;;;;;;;;6162213;23;20384;-82
2023/04/16 02:22:24;;;;;;;89.85;33.92;;;;;;;;;;6183094;23;20094;-82
2023/04/16 02:25:09;;;;;;;97.72;33.42;;;;;;;;;;6183819;23;20035;-82
2023/04/16 02:27:53;;;;;;;86.18;32.13;;;;;;;;;;6183699;23;20075;-83
2023/04/16 02:30:38;;;;;;;91.72;35.85;;;;;;;;;;6184357;23;20101;-82
2023/04/16 02:33:25;;;;;;;89.72;32.28;;;;;;;;;;6183124;23;20092;-82
2023/04/16 02:36:11;;;;;;;84.03;31.65;;;;;;;;;;6182353;23;20020;-82
2023/04/16 02:38:56;;;;;;;83.25;31.85;;;;;;;;;;6183737;23;20367;-83
2023/04/16 02:41:40;;;;;;;86.55;33.05;;;;;;;;;;6184186;23;20093;-82
2023/04/16 02:44:25;;;;;;;90.80;31.05;;;;;;;;;;6184161;23;20075;-83
2023/04/16 02:47:10;;;;;;;105.00;33.47;;;;;;;;;;6183680;23;20048;-82
2023/04/16 02:49:54;;;;;;;106.65;32.05;;;;;;;;;;6183419;23;20075;-82
2023/04/16 02:52:39;;;;;;;101.20;32.25;;;;;;;;;;6182851;23;20486;-81
2023/04/16 02:55:23;;;;;;;102.20;33.10;;;;;;;;;;6184185;23;20351;-82
2023/04/16 02:58:08;;;;;;;119.38;35.67;;;;;;;;;;6183377;23;20032;-82
2023/04/16 03:00:53;;;;;;;108.78;38.13;;;;;;;;;;6182054;23;20458;-83
2023/04/16 03:03:37;;;;;;;108.18;34.85;;;;;;;;;;6182433;23;20039;-82
2023/04/16 03:06:22;;;;;;;113.38;36.45;;;;;;;;;;6184059;23;20079;-82
2023/04/16 03:09:07;;;;;;;109.43;35.20;;;;;;;;;;6183248;23;20016;-83
2023/04/16 03:11:51;;;;;;;113.88;35.42;;;;;;;;;;6182443;23;20012;-86
2023/04/16 03:14:36;;;;;;;126.80;36.72;;;;;;;;;;6161653;23;20023;-83
2023/04/16 03:17:20;;;;;;;120.82;35.15;;;;;;;;;;6182546;23;20059;-82
2023/04/16 03:20:05;;;;;;;108.65;35.08;;;;;;;;;;6181642;23;20028;-82
2023/04/16 03:22:53;;;;;;;109.32;38.58;;;;;;;;;;6182387;23;20015;-81
2023/04/16 03:25:39;;;;;;;113.95;36.95;;;;;;;;;;6162242;23;20491;-82
2023/04/16 03:28:25;;;;;;;110.90;35.17;;;;;;;;;;6182553;23;20023;-82
2023/04/16 03:31:09;;;;;;;101.47;33.95;;;;;;;;;;6181727;23;20012;-82
2023/04/16 03:33:54;;;;;;;95.95;35.17;;;;;;;;;;6183421;23;20072;-87
2023/04/16 03:36:39;;;;;;;123.45;38.38;;;;;;;;;;6183580;23;20016;-82
2023/04/16 03:39:24;;;;;;;96.47;36.67;;;;;;;;;;6182353;23;20072;-82
2023/04/16 03:42:09;;;;;;;106.13;34.17;;;;;;;;;;6183142;23;20012;-82
2023/04/16 03:44:54;;;;;;;108.15;36.33;;;;;;;;;;6182194;23;20079;-82
2023/04/16 03:47:38;;;;;;;120.43;37.85;;;;;;;;;;6183644;23;20024;-83
2023/04/16 03:50:22;;;;;;;105.95;34.33;;;;;;;;;;6182639;23;20035;-82
2023/04/16 03:53:07;;;;;;;98.28;35.15;;;;;;;;;;6182882;23;20029;-82
2023/04/16 03:55:52;;;;;;;135.43;35.80;;;;;;;;;;6182348;23;20108;-81
2023/04/16 03:58:36;;;;;;;121.85;35.78;;;;;;;;;;6182153;23;20062;-82
2023/04/16 04:01:21;;;;;;;113.60;36.22;;;;;;;;;;6181763;23;20067;-83
2023/04/16 04:04:05;;;;;;;115.30;35.42;;;;;;;;;;6181540;23;20383;-82
2023/04/16 04:06:50;;;;;;;113.32;36.00;;;;;;;;;;6183404;23;20051;-82
2023/04/16 04:09:34;;;;;;;120.90;37.15;;;;;;;;;;6181881;23;20048;-83
2023/04/16 04:12:19;;;;;;;101.55;35.72;;;;;;;;;;6182789;23;20015;-83
2023/04/16 04:15:04;;;;;;;108.03;34.38;;;;;;;;;;6182851;23;20083;-82
2023/04/16 04:17:48;;;;;;;101.45;33.80;;;;;;;;;;6182157;23;20019;-81
2023/04/16 04:20:33;;;;;;;106.97;33.33;;;;;;;;;;6183676;23;20028;-83
2023/04/16 04:23:17;;;;;;;89.90;33.55;;;;;;;;;;6182790;23;20024;-82
2023/04/16 04:26:04;;;;;;;94.53;32.80;;;;;;;;;;6182872;23;20106;-83
2023/04/16 04:28:49;;;;;;;88.07;33.05;;;;;;;;;;6183354;23;20024;-81
2023/04/16 04:31:34;;;;;;;76.03;31.63;;;;;;;;;;6183278;23;20090;-83
2023/04/16 04:34:19;;;;;;;71.40;29.98;;;;;;;;;;6182556;23;20016;-82
2023/04/16 04:37:04;;;;;;;72.38;30.48;;;;;;;;;;6182701;23;20449;-81
2023/04/16 04:39:49;;;;;;;77.85;30.75;;;;;;;;;;6181863;23;20062;-81
2023/04/16 04:42:34;;;;;;;66.30;29.23;;;;;;;;;;6161281;23;20463;-83
2023/04/16 04:45:18;;;;;;;70.07;29.42;;;;;;;;;;6182705;23;20044;-82
2023/04/16 04:48:03;;;;;;;67.93;29.17;;;;;;;;;;6181613;23;20127;-86
2023/04/16 04:50:48;;;;;;;69.53;29.52;;;;;;;;;;6183220;23;20020;-82
2023/04/16 04:53:32;;;;;;;68.88;29.23;;;;;;;;;;6182040;23;20023;-82
2023/04/16 04:56:17;;;;;;;74.88;28.60;;;;;;;;;;6182544;23;20013;-82
2023/04/16 04:59:02;;;;;;;79.03;33.65;;;;;;;;;;6181970;23;20502;-82
2023/04/16 05:01:46;;;;;;;77.00;29.65;;;;;;;;;;6160952;23;20044;-82
2023/04/16 05:04:31;;;;;;;73.72;27.98;;;;;;;;;;6183165;23;20067;-81
2023/04/16 05:07:15;;;;;;;80.65;30.75;;;;;;;;;;6182489;23;20020;-82
2023/04/16 05:10:00;;;;;;;75.03;29.48;;;;;;;;;;6181933;23;20067;-81
2023/04/16 05:12:46;;;;;;;82.40;30.83;;;;;;;;;;6161101;23;20035;-82
2023/04/16 05:15:30;;;;;;;66.32;28.40;;;;;;;;;;6181593;23;20455;-82
2023/04/16 05:18:15;;;;;;;83.90;30.27;;;;;;;;;;6181245;23;20068;-81
2023/04/16 05:20:59;;;;;;;79.50;30.20;;;;;;;;;;6184827;23;20203;-82
2023/04/16 05:23:44;;;;;;;73.00;29.17;;;;;;;;;;6162407;23;20072;-81
2023/04/16 05:26:29;;;;;;;87.47;33.60;;;;;;;;;;6184293;23;20016;-81
2023/04/16 05:29:13;;;;;;;79.25;29.80;;;;;;;;;;6184258;23;20066;-82
2023/04/16 05:31:58;;;;;;;82.82;30.02;;;;;;;;;;6141853;23;20680;-82
2023/04/16 05:34:42;;;;;;;70.78;28.80;;;;;;;;;;6162505;23;20063;-81
2023/04/16 05:37:27;;;;;;;66.40;27.33;;;;;;;;;;6184189;23;20024;-82
2023/04/16 05:40:12;;;;;;;83.80;28.63;;;;;;;;;;6184279;23;20016;-82
2023/04/16 05:42:57;;;;;;;63.92;27.08;;;;;;;;;;6184652;23;20020;-82
2023/04/16 05:45:42;;;;;;;81.50;28.55;;;;;;;;;;6162560;23;20066;-82
2023/04/16 05:48:26;;;;;;;73.95;28.17;;;;;;;;;;6183983;23;20505;-82
2023/04/16 05:51:11;;;;;;;66.88;27.52;;;;;;;;;;6184364;23;20063;-86
2023/04/16 05:53:55;;;;;;;72.85;27.95;;;;;;;;;;6162346;23;20522;-81
2023/04/16 05:56:40;;;;;;;73.45;27.40;;;;;;;;;;6184603;23;20020;-82
2023/04/16 05:59:25;;;;;;;72.32;27.92;;;;;;;;;;6184022;23;20055;-83
2023/04/16 06:02:10;;;;;;;68.75;27.98;;;;;;;;;;6184513;23;20401;-85
2023/04/16 06:04:54;;;;;;;67.60;26.33;;;;;;;;;;6184470;23;20475;-81
2023/04/16 06:07:39;;;;;;;65.47;28.65;;;;;;;;;;6162158;23;20045;-82
2023/04/16 06:10:24;;;;;;;64.70;28.55;;;;;;;;;;6161544;23;20027;-81
2023/04/16 06:13:09;;;;;;;57.53;25.48;;;;;;;;;;6184547;23;20110;-82
2023/04/16 06:15:53;;;;;;;60.38;26.75;;;;;;;;;;6184587;23;20044;-82
2023/04/16 06:18:38;;;;;;;60.78;26.00;;;;;;;;;;6183671;23;20020;-81
2023/04/16 06:21:22;;;;;;;62.88;27.25;;;;;;;;;;6183881;23;20454;-82
2023/04/16 06:24:07;;;;;;;65.18;25.38;;;;;;;;;;6182995;23;20059;-82
2023/04/16 06:26:53;;;;;;;60.60;24.73;;;;;;;;;;6183511;23;20070;-82
2023/04/16 06:29:37;;;;;;;58.10;27.40;;;;;;;;;;6182200;23;20443;-81
2023/04/16 06:32:22;;;;;;;64.50;26.52;;;;;;;;;;6161127;23;20020;-82
2023/04/16 06:35:07;;;;;;;60.58;26.80;;;;;;;;;;6182890;23;20031;-82
2023/04/16 06:37:51;;;;;;;55.95;25.30;;;;;;;;;;6184092;23;20405;-82
2023/04/16 06:40:36;;;;;;;57.53;25.10;;;;;;;;;;6183601;23;20015;-81
2023/04/16 06:43:20;;;;;;;59.97;25.48;;;;;;;;;;6183369;23;20020;-82
2023/04/16 06:46:05;;;;;;;54.85;24.15;;;;;;;;;;6162052;23;20067;-81
2023/04/16 06:48:52;;;;;;;54.65;24.92;;;;;;;;;;6184192;23;20060;-81
2023/04/16 06:51:37;;;;;;;63.10;26.20;;;;;;;;;;6182205;23;20089;-83
2023/04/16 06:54:22;;;;;;;61.45;25.77;;;;;;;;;;6183362;23;20024;-82
2023/04/16 06:57:06;;;;;;;68.55;26.00;;;;;;;;;;6182743;23;20016;-82
2023/04/16 06:59:51;;;;;;;65.05;28.02;;;;;;;;;;6161617;23;20021;-82
2023/04/16 07:02:35;;;;;;;56.45;23.83;;;;;;;;;;6161189;23;20121;-82
2023/04/16 07:05:20;;;;;;;54.80;24.10;;;;;;;;;;6181913;23;20387;-82
2023/04/16 07:08:04;;;;;;;55.47;23.77;;;;;;;;;;6183971;23;20352;-83
2023/04/16 07:10:49;;;;;;;57.78;27.20;;;;;;;;;;6182573;23;20016;-82
2023/04/16 07:13:34;;;;;;;60.33;25.50;;;;;;;;;;6181898;23;20125;-82
2023/04/16 07:16:18;;;;;;;61.60;23.42;;;;;;;;;;6161488;23;20023;-86
2023/04/16 07:19:03;;;;;;;57.45;24.38;;;;;;;;;;6183549;23;20031;-83
2023/04/16 07:21:47;;;;;;;48.90;23.27;;;;;;;;;;6182586;23;20016;-82
2023/04/16 07:24:32;;;;;;;55.78;24.83;;;;;;;;;;6183075;23;20036;-82
2023/04/16 07:27:17;;;;;;;55.20;21.45;;;;;;;;;;6183756;23;20071;-83
2023/04/16 07:30:01;;;;;;;57.72;22.48;;;;;;;;;;6183722;23;20064;-82
2023/04/16 07:32:46;;;;;;;51.03;21.40;;;;;;;;;;6183244;23;20020;-82
2023/04/16 07:35:31;;;;;;;45.00;20.10;;;;;;;;;;6181774;23;20012;-82
2023/04/16 07:38:16;;;;;;;52.67;21.00;;;;;;;;;;6183403;23;20502;-83
2023/04/16 07:41:00;;;;;;;57.30;21.48;;;;;;;;;;6183606;23;20339;-83
2023/04/16 07:43:45;;;;;;;51.70;20.60;;;;;;;;;;6182801;23;20024;-83
2023/04/16 07:46:30;;;;;;;53.17;21.95;;;;;;;;;;6160623;23;20118;-82
2023/04/16 07:49:15;;;;;;;52.55;21.33;;;;;;;;;;6182216;23;20408;-82
2023/04/16 07:51:59;;;;;;;51.55;24.10;;;;;;;;;;6183436;23;20020;-82
2023/04/16 07:54:44;;;;;;;45.58;20.17;;;;;;;;;;6181432;23;20887;-82
2023/04/16 07:57:28;;;;;;;48.20;20.02;;;;;;;;;;6181590;23;20060;-82
2023/04/16 08:00:13;;;;;;;44.90;21.52;;;;;;;;;;6182055;23;20029;-81
2023/04/16 08:02:58;;;;;;;48.28;20.58;;;;;;;;;;6183373;23;20044;-82
2023/04/16 08:05:43;;;;;;;53.53;21.88;;;;;;;;;;6181482;23;20020;-83
2023/04/16 08:08:28;;;;;;;55.35;21.05;;;;;;;;;;6160600;23;20047;-82
2023/04/16 08:11:14;;;;;;;53.25;20.63;;;;;;;;;;6161559;23;20020;-82
2023/04/16 08:13:59;;;;;;;43.83;19.38;;;;;;;;;;6181994;23;20069;-82
2023/04/16 08:16:43;;;;;;;51.25;20.38;;;;;;;;;;6181465;23;20071;-82
2023/04/16 08:19:28;;;;;;;40.03;21.17;;;;;;;;;;6160342;23;20075;-83
2023/04/16 08:22:13;;;;;;;43.25;20.85;;;;;;;;;;6182052;23;20020;-82
2023/04/16 08:24:57;;;;;;;38.50;18.58;;;;;;;;;;6181889;23;20024;-82
2023/04/16 08:27:42;;;;;;;42.55;18.42;;;;;;;;;;6182567;23;20052;-82
2023/04/16 08:30:27;;;;;;;37.42;19.05;;;;;;;;;;6160949;23;20535;-86
2023/04/16 08:33:13;;;;;;;41.90;19.90;;;;;;;;;;6182046;23;20016;-82
2023/04/16 08:35:57;;;;;;;40.45;19.20;;;;;;;;;;6183171;23;20475;-83
2023/04/16 08:38:42;;;;;;;39.75;19.10;;;;;;;;;;6182664;23;20020;-82
2023/04/16 08:41:27;;;;;;;37.53;17.35;;;;;;;;;;6183133;23;20020;-81
2023/04/16 08:44:20;;;;;;;36.88;17.92;;;;;;;;;;6183146;23;20059;-84
2023/04/16 08:47:06;;;;;;;43.38;16.33;;;;;;;;;;6183194;23;20020;-82
2023/04/16 08:49:52;;;;;;;37.78;17.40;;;;;;;;;;6182507;23;20055;-82
2023/04/16 08:52:39;;;;;;;36.25;15.98;;;;;;;;;;6182638;23;20012;-82
2023/04/16 08:55:30;;;;;;;34.80;16.92;;;;;;;;;;6183290;23;20336;-82
2023/04/16 08:58:18;;;;;;;35.65;15.88;;;;;;;;;;6183832;23;20063;-83
2023/04/16 09:01:02;;;;;;;35.85;17.05;;;11.50;99.90;;;;;;6185153;23;20019;-82
2023/04/16 09:03:48;;;;;;;35.38;15.25;;;;;;;;;;6183029;23;20093;-82
2023/04/16 09:06:33;;;;;;;29.70;16.05;;;;;;;;;;6183213;23;20065;-86
2023/04/16 09:09:19;;;;;;;34.55;14.50;;;;;;;;;;6186730;23;20016;-82
2023/04/16 09:12:04;;;;;;;40.13;16.58;;;;;;;;;;6183583;23;20020;-81
2023/04/16 09:14:52;;;;;;;30.08;15.95;;;;;;;;;;6184448;23;20016;-81
2023/04/16 09:17:36;;;;;;;33.28;13.75;;;;;;;;;;6184403;23;20012;-82
2023/04/16 09:20:21;;;;;;;28.02;14.13;;;;;;;;;;6185045;23;20356;-83
2023/04/16 09:23:06;;;;;;;27.60;12.82;;;;;;;;;;6184972;23;20404;-82
2023/04/16 09:25:50;;;;;;;26.45;14.50;;;;;;;;;;6182979;23;20361;-82
2023/04/16 09:28:50;;;;;;;29.15;13.32;;;;;;;;;;6183231;23;20386;-85
2023/04/16 09:31:34;;;;;;;30.58;13.68;;;;;;;;;;6183266;23;20031;-86
2023/04/16 09:34:19;;;;;;;24.50;13.65;;;;;;;;;;6184700;23;20020;-82
2023/04/16 09:37:15;;;;;;;23.05;12.57;;;;;;;;;;6184806;23;20028;-82
2023/04/16 09:40:01;;;;;;;27.25;13.43;;;;;;;;;;6184387;23;20060;-82
2023/04/16 09:42:45;;;;;;;24.65;12.52;;;;;;;;;;6182599;23;20016;-83
2023/04/16 09:45:31;;;;;;;22.50;12.38;;;;;;;;;;6184696;23;20044;-82
2023/04/16 09:48:16;;;;;;;23.08;12.75;;;;;;;;;;6162496;23;20079;-83
2023/04/16 09:51:01;;;;;;;25.95;12.07;;;;;;;;;;6184365;23;20104;-82
2023/04/16 09:53:45;;;;;;;23.38;13.18;;;;;;;;;;6182702;23;20467;-82
2023/04/16 09:56:30;;;;;;;26.20;13.05;;;;;;;;;;6184587;23;20020;-82
2023/04/16 09:59:18;;;;;;;23.50;11.55;;;;;;;;;;6184710;23;20143;-82
2023/04/16 10:02:03;;;;;;;25.65;12.68;;;;;;;;;;6183313;23;20029;-82
2023/04/16 10:04:51;;;;;;;24.15;12.20;;;;;;;;;;6182620;23;20024;-82
2023/04/16 10:07:37;;;;;;;23.73;12.65;;;;;;;;;;6184187;23;20032;-81
2023/04/16 10:10:21;;;;;;;26.52;11.63;;;;;;;;;;6184524;23;20012;-82
2023/04/16 10:13:06;;;;;;;21.67;10.88;;;;;;;;;;6184486;23;20074;-82
2023/04/16 10:15:51;;;;;;;21.30;11.55;;;;;;;;;;6182552;23;20375;-82
2023/04/16 10:18:37;;;;;;;20.92;12.00;;;;;;;;;;6184319;23;20062;-82
2023/04/16 10:21:22;;;;;;;21.67;11.60;;;;;;;;;;6183332;23;20060;-82
2023/04/16 10:24:08;;;;;;;22.75;12.90;;;;;;;;;;6182796;23;20098;-82
2023/04/16 10:26:53;;;;;;;22.35;13.40;;;;;;;;;;6183724;23;20027;-82
2023/04/16 10:29:37;;;;;;;19.42;12.25;;;;;;;;;;6182848;23;20059;-82
2023/04/16 10:32:27;;;;;;;18.02;11.13;;;;;;;;;;6183180;23;20055;-82
2023/04/16 10:35:15;;;;;;;18.63;11.90;;;;;;;;;;6184334;23;20023;-82
2023/04/16 10:38:18;;;;;;;19.40;11.40;;;;;;;;;;6183575;23;20510;-83
2023/04/16 10:41:04;;;;;;;17.23;11.37;;;;;;;;;;6183602;23;20113;-84
2023/04/16 10:43:50;;;;;;;20.60;11.63;;;;;;;;;;6182104;23;20040;-82
2023/04/16 10:46:37;;;;;;;20.35;12.57;;;;;;;;;;6182756;23;20027;-83
2023/04/16 10:49:22;;;;;;;17.23;11.15;;;;;;;;;;6184176;23;20012;-81
2023/04/16 10:52:10;;;;;;;21.27;11.00;;;;;;;;;;6183588;23;20063;-82
2023/04/16 10:54:55;;;;;;;20.38;11.07;;;;;;;;;;6183287;23;20024;-82
2023/04/16 10:57:39;;;;;;;24.95;11.73;;;;;;;;;;6161999;23;20059;-82
2023/04/16 11:00:24;;;;;;;20.52;11.55;;;;;;;;;;6182744;23;20079;-82
2023/04/16 11:03:09;;;;;;;21.80;11.77;;;;;;;;;;6183686;23;20068;-82
2023/04/16 11:05:54;;;;;;;17.83;10.13;;;;;;;;;;6182016;23;20502;-82
2023/04/16 11:08:40;;;;;;;20.23;11.00;;;;;;;;;;6182652;23;20088;-82
2023/04/16 11:11:25;;;;;;;20.15;10.95;;;;;;;;;;6162050;23;20024;-82
2023/04/16 11:14:10;;;;;;;20.90;10.50;;;;;;;;;;6182410;23;20023;-82
2023/04/16 11:16:55;;;;;;;20.85;11.02;;;;;;;;;;6182970;23;20021;-83
2023/04/16 11:19:41;;;;;;;19.13;10.60;;;;;;;;;;6182302;23;20024;-82
2023/04/16 11:22:26;;;;;;;21.48;11.18;;;;;;;;;;6186759;23;20020;-82
2023/04/16 11:25:11;;;;;;;19.27;10.38;;;;;;;;;;6186023;23;20020;-82
2023/04/16 11:27:59;;;;;;;22.98;11.57;;;;;;;;;;6181743;23;20020;-81
2023/04/16 11:30:44;;;;;;;18.77;10.85;;;;;;;;;;6183870;23;20034;-84
2023/04/16 11:33:31;;;;;;;26.35;11.38;;;;;;;;;;6182557;23;20047;-82
2023/04/16 11:36:15;;;;;;;29.52;11.60;;;;;;;;;;6183638;23;20039;-82
2023/04/16 11:39:02;;;;;;;29.58;12.82;;;;;;;;;;6183096;23;20080;-82
2023/04/16 11:41:47;;;;;;;26.17;12.30;;;;;;;;;;6183611;23;20015;-82
2023/04/16 11:44:32;;;;;;;25.30;12.00;;;;;;;;;;6183466;23;20040;-82
2023/04/16 11:47:17;;;;;;;25.58;13.52;;;;;;;;;;6183735;23;20067;-82
2023/04/16 11:50:20;;;;;;;26.02;12.45;;;15.40;99.90;;;;;;6182866;23;20454;-82
2023/04/16 11:53:05;;;;;;;25.95;11.32;;;;;;;;;;6183014;23;20016;-82
2023/04/16 11:55:49;;;;;;;31.50;13.68;;;;;;;;;;6183518;23;20096;-86
2023/04/16 11:58:34;;;;;;;23.58;11.40;;;;;;;;;;6182655;23;20397;-83
2023/04/16 12:01:22;;;;;;;26.98;12.48;;;;;;;;;;6182454;23;20060;-82
2023/04/16 12:04:07;;;;;;;20.17;11.40;;;;;;;;;;6183077;23;20109;-82
2023/04/16 12:07:11;;;;;;;24.35;12.30;;;;;;;;;;6181713;23;20019;-85
2023/04/16 12:10:06;;;;;;;24.95;11.48;;;;;;;;;;6182832;23;20088;-82
2023/04/16 12:12:51;;;;;;;23.13;11.52;;;;;;;;;;6181830;23;20011;-86
2023/04/16 12:15:52;;;;;;;28.05;13.38;;;;;;;;;;6183375;23;20140;-83
2023/04/16 12:18:37;;;;;;;25.58;12.68;;;;;;;;;;6182086;23;20061;-82
2023/04/16 12:21:22;;;;;;;26.52;12.40;;;;;;;;;;6183346;23;20040;-81
2023/04/16 12:24:07;;;;;;;20.77;11.38;;;;;;;;;;6181198;23;20487;-82
2023/04/16 12:26:56;;;;;;;25.00;13.38;;;;;;;;;;6182146;23;20019;-82
2023/04/16 12:29:41;;;;;;;26.20;13.30;;;;;;;;;;6181717;23;20016;-83
2023/04/16 12:32:25;;;;;;;29.95;14.10;;;;;;;;;;6161176;23;20514;-82
2023/04/16 12:35:10;;;;;;;22.05;13.20;;;;;;;;;;6181473;23;20108;-83
2023/04/16 12:37:55;;;;;;;24.58;13.00;;;;;;;;;;6181545;23;20017;-86
2023/04/16 12:40:40;;;;;;;23.75;13.50;;;;;;;;;;6183295;23;20064;-82
2023/04/16 12:43:25;;;;;;;24.15;12.43;;;;;;;;;;6183052;23;20072;-82
2023/04/16 12:46:10;;;;;;;22.92;13.13;;;;;;;;;;6181197;23;20072;-83
2023/04/16 12:48:56;;;;;;;27.83;13.73;;;;;;;;;;6183198;23;20067;-82
2023/04/16 12:51:41;;;;;;;26.67;12.90;;;;;;;;;;6182060;23;20043;-82
2023/04/16 12:54:28;;;;;;;25.08;13.77;;;;;;;;;;6181951;23;20020;-82
2023/04/16 12:57:13;;;;;;;25.60;13.18;;;;;;;;;;6182588;23;20012;-82
2023/04/16 12:59:58;;;;;;;21.30;12.95;;;;;;;;;;6182593;23;20020;-85
2023/04/16 13:02:43;;;;;;;26.83;13.57;;;;;;;;;;6182048;23;20074;-82
2023/04/16 13:05:28;;;;;;;27.80;13.52;;;;;;;;;;6182982;23;20020;-83
2023/04/16 13:08:12;;;;;;;26.42;13.43;;;;;;;;;;6160317;23;20516;-82
2023/04/16 13:10:57;;;;;;;26.25;12.57;;;;;;;;;;6183264;23;20020;-82
2023/04/16 13:13:41;;;;;;;24.83;12.70;;;;;;;;;;6183086;23;20028;-82
2023/04/16 13:16:26;;;;;;;25.92;11.75;;;;;;;;;;6181920;23;20044;-82
2023/04/16 13:19:11;;;;;;;26.50;12.80;;;;;;;;;;6180694;23;20107;-81
2023/04/16 13:21:55;;;;;;;27.35;12.85;;;;;;;;;;6181660;23;20387;-82
2023/04/16 13:24:39;;;;;;;22.52;12.45;;;;;;;;;;6183046;23;20020;-82
2023/04/16 13:27:24;;;;;;;25.00;12.68;;;;;;;;;;6181378;23;20023;-82
2023/04/16 13:30:09;;;;;;;25.63;12.30;;;;;;;;;;6181173;23;20067;-82
2023/04/16 13:32:54;;;;;;;27.42;13.75;;;;;;;;;;6181756;23;20095;-83
2023/04/16 13:35:38;;;;;;;22.05;11.82;;;;;;;;;;6183026;23;20458;-82
2023/04/16 13:38:23;;;;;;;26.58;13.57;;;;;;;;;;6181159;23;20084;-82
2023/04/16 13:41:08;;;;;;;25.73;12.43;;;;;;;;;;6161260;23;20040;-82
2023/04/16 13:43:53;;;;;;;21.45;12.90;;;;;;;;;;6162434;23;20056;-83
2023/04/16 13:46:38;;;;;;;24.05;12.30;;;;;;;;;;6183526;23;20068;-82
2023/04/16 13:49:22;;;;;;;29.30;13.23;;;;;;;;;;6182978;23;20071;-82
2023/04/16 13:52:07;;;;;;;26.73;14.88;;;;;;;;;;6184062;23;20100;-81
2023/04/16 13:54:51;;;;;;;23.17;13.52;;;;;;;;;;6183312;23;20024;-82
2023/04/16 13:57:36;;;;;;;28.85;13.48;;;;;;;;;;6162471;23;20020;-83
2023/04/16 14:00:21;;;;;;;30.38;13.63;;;;;;;;;;6184040;23;20024;-82
2023/04/16 14:03:05;;;;;;;24.00;13.50;;;;;;;;;;6184491;23;20392;-87
2023/04/16 14:05:50;;;;;;;29.80;12.77;;;;;;;;;;6184628;23;20024;-81
2023/04/16 14:08:35;;;;;;;27.85;12.82;;;;;;;;;;6183167;23;20078;-82
2023/04/16 14:11:20;;;;;;;24.60;12.75;;;;;;;;;;6182688;23;20131;-82
2023/04/16 14:14:05;;;;;;;28.92;14.65;;;;;;;;;;6184258;23;20028;-86
2023/04/16 14:16:50;;;;;;;24.33;13.55;;;;;;;;;;6184523;23;20063;-82
2023/04/16 14:19:34;;;;;;;26.63;13.77;;;;;;;;;;6185872;23;20052;-82
2023/04/16 14:22:19;;;;;;;28.08;14.48;;;;;;;;;;6182560;23;20020;-82
2023/04/16 14:25:04;;;;;;;26.70;12.38;;;;;;;;;;6184310;23;20020;-82
2023/04/16 14:27:49;;;;;;;27.08;13.45;;;;;;;;;;6183054;23;20039;-81
2023/04/16 14:30:33;;;;;;;27.63;14.32;;;;;;;;;;6184330;23;20016;-82
2023/04/16 14:33:18;;;;;;;24.73;13.90;;;;;;;;;;6183653;23;20032;-82
2023/04/16 14:36:02;;;;;;;28.85;13.85;;;;;;;;;;6184204;23;20503;-82
2023/04/16 14:38:47;;;;;;;26.58;14.43;;;;;;;;;;6183049;23;20443;-82
2023/04/16 14:41:31;;;;;;;30.80;15.13;;;;;;;;;;6182196;23;20043;-82
2023/04/16 14:44:16;;;;;;;20.50;12.40;;;;;;;;;;6161340;23;20020;-82
2023/04/16 14:47:00;;;;;;;23.50;12.40;;;;;;;;;;6182913;23;20023;-82
2023/04/16 14:49:45;;;;;;;25.15;13.00;;;;;;;;;;6182872;23;20088;-83
2023/04/16 14:52:33;;;;;;;25.40;14.43;;;;;;;;;;6161099;23;20259;-83
2023/04/16 14:55:17;;;;;;;26.23;13.77;;;;;;;;;;6182116;23;20071;-82
2023/04/16 14:58:02;;;;;;;21.92;13.70;;;;;;;;;;6182960;23;20016;-82
2023/04/16 15:00:47;;;;;;;22.80;13.25;;;;;;;;;;6161993;23;20052;-82
2023/04/16 15:03:31;;;;;;;24.08;13.13;;;;;;;;;;6183337;23;20019;-81
2023/04/16 15:06:16;;;;;;;29.83;14.00;;;;;;;;;;6182022;23;20016;-82
2023/04/16 15:09:01;;;;;;;23.00;13.30;;;;;;;;;;6182719;23;20016;-82
2023/04/16 15:11:45;;;;;;;25.10;13.07;;;;;;;;;;6182553;23;20459;-82
2023/04/16 15:14:30;;;;;;;22.55;13.70;;;;;;;;;;6183349;23;20020;-82
2023/04/16 15:17:14;;;;;;;27.98;11.95;;;;;;;;;;6181907;23;20071;-83
2023/04/16 15:19:59;;;;;;;23.40;11.82;;;;;;;;;;6182394;23;20052;-82
2023/04/16 15:22:44;;;;;;;24.42;12.48;;;;;;;;;;6183885;23;20016;-82
2023/04/16 15:25:29;;;;;;;27.58;12.50;;;;;;;;;;6181841;23;20340;-82
2023/04/16 15:28:15;;;;;;;21.67;11.38;;;;;;;;;;6182441;23;20075;-85
2023/04/16 15:31:00;;;;;;;22.92;12.00;;;;;;;;;;6182494;23;20124;-83
2023/04/16 15:33:44;;;;;;;21.17;11.93;;;;;;;;;;6183847;23;20140;-82
2023/04/16 15:36:29;;;;;;;23.23;12.73;;;;;;;;;;6181749;23;20011;-82
2023/04/16 15:39:13;;;;;;;18.40;11.75;;;;;;;;;;6182407;23;20016;-82
2023/04/16 15:41:58;;;;;;;18.02;10.80;;;;;;;;;;6182487;23;20091;-82
2023/04/16 15:44:42;;;;;;;21.05;13.70;;;;;;;;;;6182219;23;20016;-83
2023/04/16 15:47:27;;;;;;;25.33;12.13;;;;;;;;;;6183206;23;20143;-82
2023/04/16 15:50:11;;;;;;;17.85;11.60;;;;;;;;;;6182319;23;20336;-83
2023/04/16 15:52:56;;;;;;;22.67;11.60;;;;;;;;;;6183697;23;20347;-83
2023/04/16 15:55:41;;;;;;;25.60;11.77;;;;;;;;;;6183119;23;20047;-82
2023/04/16 15:58:26;;;;;;;20.77;12.80;;;;;;;;;;6181541;23;20041;-83
2023/04/16 16:01:11;;;;;;;20.50;14.10;;;;;;;;;;6183539;23;20016;-83